createdAt,value
2019-04-11T00:02:29.413Z,69.9
2019-04-11T00:07:28.673Z,69.6
2019-04-11T00:12:27.855Z,69.6
2019-04-11T00:17:28.533Z,69.5
2019-04-11T00:22:28.203Z,69.4
2019-04-11T00:27:29.320Z,69.4
2019-04-11T00:32:27.935Z,69.3
2019-04-11T00:37:29.730Z,69.2
2019-04-11T00:42:28.689Z,69.2
2019-04-11T00:47:28.963Z,69.3
2019-04-11T00:52:27.873Z,69.1
2019-04-11T00:57:28.929Z,68.9
2019-04-11T01:02:29.190Z,68.9
2019-04-11T01:07:27.543Z,68.8
2019-04-11T01:12:29.313Z,68.9
2019-04-11T01:17:29.910Z,68.9
2019-04-11T01:22:28.291Z,68.6
2019-04-11T01:27:28.565Z,68.7
2019-04-11T01:32:28.897Z,68.8
2019-04-11T01:37:28.418Z,68.6
2019-04-11T01:42:28.074Z,68.5
2019-04-11T01:47:29.299Z,68.5
2019-04-11T01:52:28.354Z,68.5
2019-04-11T01:57:27.990Z,68.5
2019-04-11T02:02:29.092Z,68.6
2019-04-11T02:07:29.309Z,68.4
2019-04-11T02:12:29.340Z,68.4
2019-04-11T02:17:28.599Z,68.4
2019-04-11T02:22:29.199Z,68.3
2019-04-11T02:27:28.602Z,68.4
2019-04-11T02:32:29.748Z,68.2
2019-04-11T02:37:31.649Z,68.2
2019-04-11T02:42:28.202Z,68.0
2019-04-11T02:47:35.537Z,67.9
2019-04-11T02:52:28.856Z,67.9
2019-04-11T02:57:29.805Z,67.8
2019-04-11T03:02:28.040Z,67.8
2019-04-11T03:07:31.612Z,67.7
2019-04-11T03:12:31.358Z,67.7
2019-04-11T03:17:38.417Z,67.6
2019-04-11T03:22:29.794Z,67.6
2019-04-11T03:27:32.094Z,67.6
2019-04-11T03:34:37.484Z,67.4
2019-04-11T03:37:58.181Z,67.4
2019-04-11T03:42:53.649Z,67.3
2019-04-11T03:48:01.574Z,67.4
2019-04-11T03:52:32.603Z,67.3
2019-04-11T03:57:31.691Z,67.2
2019-04-11T04:02:28.704Z,67.3
2019-04-11T04:07:31.524Z,67.4
2019-04-11T04:12:31.033Z,67.4
2019-04-11T04:17:28.377Z,67.3
2019-04-11T04:22:31.319Z,67.2
2019-04-11T04:27:32.462Z,67.4
2019-04-11T04:32:30.239Z,67.5
2019-04-11T04:37:31.725Z,67.4
2019-04-11T04:42:42.796Z,67.4
2019-04-11T04:47:45.780Z,67.2
2019-04-11T04:52:31.601Z,67.3
2019-04-11T04:57:33.278Z,67.4
2019-04-11T05:02:30.990Z,67.1
2019-04-11T05:07:34.968Z,67.0
2019-04-11T05:12:29.873Z,67.0
2019-04-11T05:17:29.387Z,67.1
2019-04-11T05:22:30.811Z,66.8
2019-04-11T05:27:29.717Z,66.5
2019-04-11T05:32:29.134Z,66.5
2019-04-11T05:37:29.574Z,66.1
2019-04-11T05:42:29.612Z,66.1
2019-04-11T05:47:30.063Z,66.0
2019-04-11T05:52:32.536Z,65.7
2019-04-11T05:57:38.338Z,65.6
2019-04-11T06:02:29.435Z,65.6
2019-04-11T06:07:29.671Z,65.4
2019-04-11T06:12:30.238Z,65.2
2019-04-11T06:17:28.758Z,65.4
2019-04-11T06:22:30.058Z,65.4
2019-04-11T06:27:29.059Z,65.2
2019-04-11T06:32:30.288Z,65.0
2019-04-11T06:37:28.117Z,64.9
2019-04-11T06:42:31.713Z,64.7
2019-04-11T06:47:29.101Z,65.4
2019-04-11T06:52:29.128Z,65.2
2019-04-11T06:57:30.395Z,65.1
2019-04-11T07:02:28.380Z,65.1
2019-04-11T07:07:32.327Z,65.5
2019-04-11T07:12:29.033Z,65.5
2019-04-11T07:17:29.442Z,65.2
2019-04-11T07:22:28.303Z,65.3
2019-04-11T07:27:29.356Z,65.4
2019-04-11T07:32:28.321Z,65.2
2019-04-11T07:37:28.564Z,65.2
2019-04-11T07:42:28.314Z,65.2
2019-04-11T07:47:30.065Z,65.3
2019-04-11T07:52:32.874Z,65.2
2019-04-11T07:57:30.539Z,65.6
2019-04-11T08:02:29.423Z,65.6
2019-04-11T08:07:28.709Z,66.0
2019-04-11T08:12:30.010Z,65.9
2019-04-11T08:17:40.369Z,65.8
2019-04-11T08:22:28.161Z,66.0
2019-04-11T08:27:28.334Z,66.0
2019-04-11T08:32:29.988Z,66.2
2019-04-11T08:37:30.020Z,66.2
2019-04-11T08:42:29.342Z,66.4
2019-04-11T08:47:46.983Z,66.3
2019-04-11T08:52:28.299Z,66.4
2019-04-11T08:57:28.586Z,66.7
2019-04-11T09:02:29.622Z,66.5
2019-04-11T09:07:30.019Z,66.7
2019-04-11T09:12:29.163Z,66.7
2019-04-11T09:17:28.887Z,66.9
2019-04-11T09:22:29.499Z,67.2
2019-04-11T09:27:29.330Z,67.0
2019-04-11T09:32:28.935Z,67.1
2019-04-11T09:37:29.951Z,67.3
2019-04-11T09:42:30.781Z,67.6
2019-04-11T09:47:28.655Z,67.1
2019-04-11T09:52:29.377Z,67.7
2019-04-11T09:57:29.334Z,67.6
2019-04-11T10:02:28.223Z,67.7
2019-04-11T10:07:30.014Z,67.8
2019-04-11T10:12:28.103Z,67.9
2019-04-11T10:17:30.098Z,68.1
2019-04-11T10:22:29.616Z,68.3
2019-04-11T10:27:29.200Z,68.4
2019-04-11T10:32:28.884Z,68.0
2019-04-11T10:37:28.977Z,68.4
2019-04-11T10:42:29.137Z,68.3
2019-04-11T10:47:31.069Z,68.6
2019-04-11T10:52:29.167Z,68.0
2019-04-11T10:57:28.177Z,68.4
2019-04-11T11:02:29.772Z,68.2
2019-04-11T11:07:29.064Z,68.3
2019-04-11T11:12:30.007Z,68.1
2019-04-11T11:18:13.357Z,68.0
2019-04-11T11:22:34.517Z,66.8
2019-04-11T11:27:28.763Z,66.7
2019-04-11T11:32:27.958Z,66.2
2019-04-11T11:37:29.511Z,66.2
2019-04-11T11:42:30.769Z,66.7
2019-04-11T11:47:32.914Z,66.7
2019-04-11T11:52:34.443Z,67.0
2019-04-11T11:57:29.259Z,65.5
2019-04-11T12:02:28.970Z,66.8
2019-04-11T12:07:33.577Z,66.7
2019-04-11T12:12:27.799Z,67.3
2019-04-11T12:17:34.625Z,67.3
2019-04-11T12:22:28.930Z,67.0
2019-04-11T12:27:29.445Z,66.2
2019-04-11T12:32:28.817Z,66.9
2019-04-11T12:37:28.137Z,66.8
2019-04-11T12:42:28.854Z,66.8
2019-04-11T12:47:28.051Z,65.3
2019-04-11T12:52:28.520Z,66.8
2019-04-11T12:57:28.573Z,66.7
2019-04-11T13:02:28.551Z,66.6
2019-04-11T13:07:28.800Z,66.6
2019-04-11T13:12:28.627Z,66.3
2019-04-11T13:17:28.285Z,66.7
2019-04-11T13:22:28.413Z,65.6
2019-04-11T13:27:28.767Z,66.6
2019-04-11T13:32:30.160Z,66.5
2019-04-11T13:37:28.340Z,66.2
2019-04-11T13:42:27.770Z,66.4
2019-04-11T13:47:28.384Z,65.8
2019-04-11T13:52:28.260Z,64.7
2019-04-11T13:57:28.207Z,65.6
2019-04-11T14:02:28.561Z,66.1
2019-04-11T14:07:28.253Z,66.0
2019-04-11T14:12:27.964Z,65.0
2019-04-11T14:17:28.622Z,64.2
2019-04-11T14:22:29.761Z,65.5
2019-04-11T14:27:28.207Z,60.3
2019-04-11T14:32:28.908Z,60.3
2019-04-11T14:37:38.872Z,61.0
2019-04-11T14:42:29.007Z,58.6
2019-04-11T14:47:28.615Z,56.2
2019-04-11T14:52:28.419Z,55.7
2019-04-11T14:57:28.091Z,54.5
2019-04-11T15:02:28.404Z,51.6
2019-04-11T15:07:27.767Z,51.5
2019-04-11T15:12:28.356Z,52.0
2019-04-11T15:17:28.194Z,49.3
2019-04-11T15:22:28.527Z,50.3
2019-04-11T15:27:28.808Z,46.7
2019-04-11T15:32:29.331Z,47.7
2019-04-11T15:37:28.636Z,47.7
2019-04-11T15:42:27.544Z,47.3
2019-04-11T15:47:28.314Z,48.2
2019-04-11T15:52:28.493Z,47.3
2019-04-11T15:57:28.166Z,48.4
2019-04-11T16:02:28.710Z,48.9
2019-04-11T16:07:28.308Z,44.8
2019-04-11T16:12:28.387Z,44.2
2019-04-11T16:17:28.067Z,45.6
2019-04-11T16:22:28.263Z,45.6
2019-04-11T16:27:28.140Z,45.5
2019-04-11T16:32:28.592Z,46.4
2019-04-11T16:37:27.897Z,45.1
2019-04-11T16:42:29.072Z,45.1
2019-04-11T16:47:28.542Z,46.0
2019-04-11T16:52:28.118Z,47.2
2019-04-11T16:57:27.912Z,47.2
2019-04-11T17:02:29.473Z,45.7
2019-04-11T17:07:29.334Z,48.0
2019-04-11T17:12:27.736Z,48.0
2019-04-11T17:17:31.641Z,49.4
2019-04-11T17:22:29.017Z,49.4
2019-04-11T17:27:28.145Z,51.0
2019-04-11T17:32:29.762Z,51.0
2019-04-11T17:37:28.269Z,51.8
2019-04-11T17:42:29.551Z,52.7
2019-04-11T17:47:28.900Z,55.1
2019-04-11T17:52:28.756Z,57.9
2019-04-11T17:57:28.646Z,59.2
2019-04-11T18:02:28.845Z,59.9
2019-04-11T18:07:28.965Z,60.3
2019-04-11T18:12:28.115Z,60.4
2019-04-11T18:17:28.551Z,60.7
2019-04-11T18:22:28.445Z,60.6
2019-04-11T18:27:28.073Z,60.4
2019-04-11T18:32:28.846Z,60.3
2019-04-11T18:37:32.719Z,60.3
2019-04-11T18:42:28.040Z,60.1
2019-04-11T18:47:28.436Z,60.4
2019-04-11T18:52:29.449Z,60.4
2019-04-11T18:57:27.942Z,60.3
2019-04-11T19:02:28.249Z,60.2
2019-04-11T19:07:28.722Z,60.2
2019-04-11T19:12:28.041Z,60.3
2019-04-11T19:17:30.740Z,60.3
2019-04-11T19:22:38.637Z,60.4
2019-04-11T19:27:28.235Z,60.1
2019-04-11T19:32:27.751Z,60.1
2019-04-11T19:37:28.188Z,60.0
2019-04-11T19:42:28.081Z,60.0
2019-04-11T19:47:27.429Z,60.0
2019-04-11T19:52:32.848Z,60.1
2019-04-11T19:57:27.659Z,59.9
2019-04-11T20:02:27.274Z,59.8
2019-04-11T20:07:28.443Z,59.8
2019-04-11T20:12:31.054Z,59.6
2019-04-11T20:17:27.856Z,59.5
2019-04-11T20:22:27.607Z,59.6
2019-04-11T20:27:27.947Z,59.6
2019-04-11T20:32:27.625Z,59.7
2019-04-11T20:37:39.756Z,59.6
2019-04-11T20:42:27.944Z,59.4
2019-04-11T20:47:30.278Z,59.5
2019-04-11T20:52:27.847Z,59.4
2019-04-11T20:57:28.513Z,59.3
2019-04-11T21:02:29.532Z,59.4
2019-04-11T21:07:31.511Z,59.4
2019-04-11T21:12:28.399Z,59.6
2019-04-11T21:17:28.947Z,59.7
2019-04-11T21:22:27.467Z,59.9
2019-04-11T21:27:29.515Z,60.0
2019-04-11T21:32:32.586Z,60.2
2019-04-11T21:37:30.696Z,60.1
2019-04-11T21:42:27.992Z,59.9
2019-04-11T21:47:27.915Z,59.8
2019-04-11T21:52:32.601Z,59.6
2019-04-11T21:57:27.939Z,59.6
2019-04-11T22:02:28.397Z,59.6
2019-04-11T22:07:31.606Z,59.6
2019-04-11T22:12:27.567Z,59.8
2019-04-11T22:22:43.426Z,59.4
2019-04-11T22:27:42.405Z,59.8
2019-04-11T22:32:42.577Z,59.8
2019-04-11T22:37:42.513Z,59.7
2019-04-11T22:42:42.258Z,59.8
2019-04-11T22:47:42.718Z,59.8
2019-04-11T22:52:43.183Z,59.6
2019-04-11T22:57:44.642Z,59.4
2019-04-11T23:02:48.116Z,59.3
2019-04-11T23:07:41.968Z,59.3
2019-04-11T23:12:28.304Z,59.2
2019-04-11T23:17:28.502Z,59.2
2019-04-11T23:22:28.308Z,59.1
2019-04-11T23:27:27.296Z,58.9
2019-04-11T23:32:28.432Z,58.9
2019-04-11T23:37:29.223Z,59.0
2019-04-11T23:42:28.922Z,59.1
2019-04-11T23:47:27.884Z,59.1
2019-04-11T23:52:27.909Z,59.1
2019-04-11T23:57:31.790Z,59.1
